createdAt,value
2022-08-10T00:04:54.421Z,19.00
2022-08-10T00:09:57.137Z,19.00
2022-08-10T00:15:00.131Z,18.91
2022-08-10T00:20:08.510Z,18.73
2022-08-10T00:25:11.601Z,18.72
2022-08-10T00:30:14.570Z,18.72
2022-08-10T00:35:18.609Z,18.67
2022-08-10T00:40:37.229Z,18.67
2022-08-10T00:45:40.673Z,18.63
2022-08-10T00:50:44.782Z,18.50
2022-08-10T00:57:14.069Z,18.49
2022-08-10T01:01:11.667Z,18.35
2022-08-10T01:06:40.041Z,18.34
2022-08-10T01:12:39.093Z,18.21
2022-08-10T01:17:14.650Z,18.17
2022-08-10T01:22:46.323Z,18.08
2022-08-10T01:27:56.186Z,18.09
2022-08-10T01:33:05.042Z,18.28
2022-08-10T01:38:11.799Z,18.04
2022-08-10T01:43:17.297Z,17.78
2022-08-10T01:48:30.909Z,17.85
2022-08-10T01:53:40.786Z,18.02
2022-08-10T01:58:45.375Z,17.84
2022-08-10T02:04:01.247Z,17.86
2022-08-10T02:09:09.579Z,17.64
2022-08-10T02:14:15.112Z,17.63
2022-08-10T02:19:22.485Z,17.63
2022-08-10T02:24:25.797Z,17.46
2022-08-10T02:29:29.315Z,17.65
2022-08-10T02:34:34.390Z,17.51
2022-08-10T02:39:38.481Z,17.34
2022-08-10T02:45:23.257Z,17.37
2022-08-10T02:50:11.896Z,17.26
2022-08-10T02:55:19.382Z,17.26
2022-08-10T03:00:29.758Z,17.28
2022-08-10T03:05:34.707Z,17.19
2022-08-10T03:10:40.774Z,17.16
2022-08-10T03:15:44.153Z,16.98
2022-08-10T03:20:48.796Z,17.02
2022-08-10T03:25:54.943Z,17.12
2022-08-10T03:30:58.747Z,17.10
2022-08-10T03:36:42.599Z,16.96
2022-08-10T03:41:35.724Z,16.89
2022-08-10T03:46:40.753Z,16.81
2022-08-10T03:51:45.348Z,16.84
2022-08-10T03:56:48.395Z,16.62
2022-08-10T04:02:41.647Z,16.67
2022-08-10T04:07:16.470Z,16.65
2022-08-10T04:12:19.350Z,16.45
2022-08-10T04:17:56.728Z,16.64
2022-08-10T04:22:48.883Z,16.52
2022-08-10T04:27:51.899Z,16.53
2022-08-10T04:32:55.720Z,16.39
2022-08-10T04:38:00.660Z,16.55
2022-08-10T04:43:12.332Z,16.53
2022-08-10T04:48:43.166Z,16.65
2022-08-10T04:54:04.246Z,16.68
2022-08-10T04:59:02.619Z,16.93
2022-08-10T05:04:35.448Z,17.22
2022-08-10T05:09:29.792Z,17.38
2022-08-10T05:14:32.474Z,17.50
2022-08-10T05:20:02.792Z,17.50
2022-08-10T05:24:59.277Z,17.79
2022-08-10T05:30:03.611Z,17.78
2022-08-10T05:35:12.790Z,17.89
2022-08-10T05:40:17.275Z,17.97
2022-08-10T05:45:22.148Z,18.25
2022-08-10T05:50:27.046Z,18.42
2022-08-10T05:55:31.961Z,18.57
2022-08-10T06:00:41.762Z,18.67
2022-08-10T06:05:45.999Z,18.70
2022-08-10T06:12:25.415Z,18.81
2022-08-10T06:16:16.284Z,19.03
2022-08-10T06:21:19.583Z,19.09
2022-08-10T06:26:23.645Z,19.05
2022-08-10T06:31:27.358Z,19.15
2022-08-10T06:36:34.156Z,19.38
2022-08-10T06:42:14.995Z,19.64
2022-08-10T06:47:08.494Z,19.71
2022-08-10T06:52:18.248Z,19.79
2022-08-10T06:57:26.441Z,20.01
2022-08-10T07:02:37.835Z,20.16
2022-08-10T07:07:42.080Z,20.34
2022-08-10T07:12:47.044Z,20.42
2022-08-10T07:17:50.172Z,20.60
2022-08-10T07:23:01.737Z,20.78
2022-08-10T07:28:18.937Z,21.11
2022-08-10T07:33:22.250Z,21.13
2022-08-10T07:38:28.186Z,21.41
2022-08-10T07:43:35.436Z,21.41
2022-08-10T07:48:45.482Z,21.86
2022-08-10T07:53:51.278Z,21.85
2022-08-10T07:59:01.219Z,21.91
2022-08-10T08:04:05.636Z,22.19
2022-08-10T08:09:14.332Z,22.48
2022-08-10T08:14:20.126Z,22.46
2022-08-10T08:19:27.736Z,22.73
2022-08-10T08:24:34.489Z,23.06
2022-08-10T08:29:42.303Z,23.23
2022-08-10T08:34:46.415Z,23.17
2022-08-10T08:39:49.252Z,23.42
2022-08-10T08:45:03.770Z,23.62
2022-08-10T08:50:21.175Z,23.76
2022-08-10T08:56:02.867Z,24.18
2022-08-10T09:01:23.561Z,24.12
2022-08-10T09:07:07.211Z,24.31
2022-08-10T09:12:39.704Z,24.73
2022-08-10T09:17:48.931Z,24.62
2022-08-10T09:22:57.931Z,25.06
2022-08-10T09:28:04.101Z,24.77
2022-08-10T09:36:21.411Z,24.94
2022-08-10T09:38:38.951Z,25.28
2022-08-10T09:43:47.721Z,25.13
2022-08-10T09:49:11.948Z,25.38
2022-08-10T09:54:31.216Z,25.68
2022-08-10T10:00:00.784Z,25.63
2022-08-10T10:05:15.678Z,25.76
2022-08-10T10:10:21.353Z,25.93
2022-08-10T10:15:32.925Z,26.28
2022-08-10T10:20:42.068Z,26.52
2022-08-10T10:25:52.572Z,26.37
2022-08-10T10:31:16.599Z,26.82
2022-08-10T10:36:21.458Z,26.77
2022-08-10T10:42:03.957Z,27.17
2022-08-10T10:47:04.034Z,26.99
2022-08-10T10:52:18.633Z,27.33
2022-08-10T10:57:59.434Z,27.53
2022-08-10T11:02:59.829Z,27.38
2022-08-10T11:08:08.304Z,27.36
2022-08-10T11:14:25.043Z,28.03
2022-08-10T11:19:00.137Z,28.08
2022-08-10T11:24:47.376Z,27.94
2022-08-10T11:29:36.244Z,28.29
2022-08-10T11:34:47.682Z,28.31
2022-08-10T11:39:58.317Z,28.00
2022-08-10T11:45:04.094Z,28.42
2022-08-10T11:50:12.140Z,28.84
2022-08-10T11:55:20.539Z,28.48
2022-08-10T12:00:23.960Z,28.90
2022-08-10T12:05:46.743Z,29.20
2022-08-10T12:10:53.220Z,28.93
2022-08-10T12:16:05.592Z,29.34
2022-08-10T12:21:21.042Z,29.20
2022-08-10T12:26:29.359Z,28.68
2022-08-10T12:31:35.173Z,29.33
2022-08-10T12:36:39.197Z,29.70
2022-08-10T12:41:50.203Z,29.66
2022-08-10T12:46:59.561Z,29.83
2022-08-10T12:52:07.035Z,29.86
2022-08-10T12:57:13.508Z,29.98
2022-08-10T13:02:21.546Z,29.99
2022-08-10T13:08:25.918Z,29.45
2022-08-10T13:12:52.663Z,30.47
2022-08-10T13:17:57.094Z,30.09
2022-08-10T13:23:01.351Z,30.20
2022-08-10T13:28:35.296Z,29.85
2022-08-10T13:34:39.817Z,29.70
2022-08-10T13:38:56.821Z,30.28
2022-08-10T13:44:01.929Z,30.11
2022-08-10T13:49:06.693Z,30.39
2022-08-10T13:54:11.383Z,29.55
2022-08-10T13:59:16.755Z,29.50
2022-08-10T14:04:19.893Z,29.23
2022-08-10T14:09:28.920Z,29.78
2022-08-10T14:14:33.441Z,29.97
2022-08-10T14:19:43.567Z,29.66
2022-08-10T14:24:47.270Z,29.34
2022-08-10T14:29:55.598Z,29.85
2022-08-10T14:36:21.250Z,29.91
2022-08-10T14:40:24.872Z,30.26
2022-08-10T14:45:30.283Z,28.49
2022-08-10T14:50:33.876Z,28.22
2022-08-10T14:55:58.529Z,29.45
2022-08-10T15:01:02.449Z,29.44
2022-08-10T15:06:17.218Z,29.47
2022-08-10T15:12:13.443Z,29.19
2022-08-10T15:16:45.930Z,28.90
2022-08-10T15:22:03.764Z,29.27
2022-08-10T15:27:10.495Z,29.41
2022-08-10T15:32:32.324Z,29.28
2022-08-10T15:37:36.372Z,29.13
2022-08-10T15:42:49.187Z,29.10
2022-08-10T15:48:02.955Z,28.85
2022-08-10T15:53:15.836Z,28.86
2022-08-10T15:58:30.275Z,28.87
2022-08-10T16:03:46.830Z,28.90
2022-08-10T16:10:23.381Z,28.89
2022-08-10T16:14:31.118Z,28.64
2022-08-10T16:19:36.411Z,28.51
2022-08-10T16:24:41.313Z,28.31
2022-08-10T16:29:56.024Z,28.49
2022-08-10T16:35:02.285Z,28.40
2022-08-10T16:40:13.437Z,28.18
2022-08-10T16:45:19.861Z,28.22
2022-08-10T16:50:26.790Z,28.06
2022-08-10T16:55:48.596Z,28.19
2022-08-10T17:00:54.871Z,28.07
2022-08-10T17:06:03.541Z,28.08
2022-08-10T17:11:15.109Z,27.89
2022-08-10T17:16:19.470Z,27.80
2022-08-10T17:21:28.008Z,27.62
2022-08-10T17:26:36.063Z,27.45
2022-08-10T17:31:54.692Z,27.48
2022-08-10T17:37:02.165Z,27.42
2022-08-10T17:42:05.602Z,27.34
2022-08-10T17:47:10.662Z,27.32
2022-08-10T17:52:22.095Z,27.23
2022-08-10T17:57:25.665Z,27.09
2022-08-10T18:02:29.140Z,27.02
2022-08-10T18:07:35.716Z,26.95
2022-08-10T18:12:43.905Z,26.81
2022-08-10T18:17:49.406Z,26.72
2022-08-10T18:22:54.533Z,26.54
2022-08-10T18:28:04.413Z,26.43
2022-08-10T18:33:10.985Z,26.37
2022-08-10T18:38:16.487Z,26.24
2022-08-10T18:44:06.157Z,26.08
2022-08-10T18:48:51.136Z,25.87
2022-08-10T18:53:58.978Z,25.61
2022-08-10T18:59:16.096Z,25.56
2022-08-10T19:04:27.557Z,25.44
2022-08-10T19:09:47.575Z,25.30
2022-08-10T19:15:00.427Z,25.19
2022-08-10T19:20:09.817Z,25.19
2022-08-10T19:26:17.166Z,25.07
2022-08-10T19:30:50.668Z,24.91
2022-08-10T19:36:05.528Z,24.83
2022-08-10T19:41:15.634Z,24.78
2022-08-10T19:46:36.590Z,24.68
2022-08-10T19:51:48.706Z,24.56
2022-08-10T19:57:02.278Z,24.50
2022-08-10T20:02:05.215Z,24.41
2022-08-10T20:07:11.907Z,24.33
2022-08-10T20:12:22.725Z,24.25
2022-08-10T20:17:50.996Z,24.18
2022-08-10T20:23:09.106Z,24.10
2022-08-10T20:28:19.930Z,23.88
2022-08-10T20:33:28.846Z,23.87
2022-08-10T20:38:34.797Z,23.75
2022-08-10T20:43:42.841Z,23.65
2022-08-10T20:48:52.000Z,23.47
2022-08-10T20:53:57.460Z,23.26
2022-08-10T20:59:10.319Z,23.33
2022-08-10T21:04:18.723Z,23.32
2022-08-10T21:09:28.745Z,23.22
2022-08-10T21:14:43.140Z,22.98
2022-08-10T21:20:02.274Z,22.92
2022-08-10T21:25:07.595Z,22.92
2022-08-10T21:30:13.334Z,22.75
2022-08-10T21:35:36.900Z,22.72
2022-08-10T21:41:19.126Z,22.68
2022-08-10T21:46:54.830Z,22.45
2022-08-10T21:52:22.679Z,22.37
2022-08-10T21:57:45.930Z,22.33
2022-08-10T22:03:08.089Z,22.21
2022-08-10T22:08:30.381Z,21.98
2022-08-10T22:13:53.030Z,21.91
2022-08-10T22:19:17.325Z,21.95
2022-08-10T22:24:47.151Z,21.90
2022-08-10T22:30:12.056Z,21.81
2022-08-10T22:35:53.393Z,21.68
2022-08-10T22:41:21.430Z,21.75
2022-08-10T22:46:44.098Z,21.58
2022-08-10T22:51:53.815Z,21.55
2022-08-10T22:57:14.191Z,21.54
2022-08-10T23:02:28.114Z,21.42
2022-08-10T23:07:36.178Z,21.41
2022-08-10T23:12:41.569Z,21.31
2022-08-10T23:18:07.781Z,21.08
2022-08-10T23:23:24.065Z,20.93
2022-08-10T23:28:39.054Z,20.96
2022-08-10T23:33:53.849Z,20.77
2022-08-10T23:39:26.416Z,20.86
2022-08-10T23:44:21.275Z,20.51
2022-08-10T23:49:25.049Z,20.53
2022-08-10T23:54:30.342Z,20.63
2022-08-10T23:59:33.654Z,20.51
